Time;durP1;ratioP1;P1;durP2;ratioP2;P2;SDS_P1;SDS_P2;PMS_P1;PMS_P2;Temp;Humidity;BMP_temperature;BMP_pressure;BME280_temperature;BME280_humidity;BME280_pressure;Samples;Min_cycle;Max_cycle;Signal;HPM_P1;HPM_P2
2023/08/23 00:01:31;;;;;;;2.40;2.20;;;;;;;20.34;57.30;101720.34;5034593;27;96720;-52
2023/08/23 00:03:57;;;;;;;2.97;2.40;;;;;;;20.31;57.09;101720.69;5034239;27;97286;-53
2023/08/23 00:06:23;;;;;;;2.43;2.23;;;;;;;20.30;57.25;101717.13;5032698;27;96918;-53
2023/08/23 00:08:48;;;;;;;2.47;2.27;;;;;;;20.28;57.40;101718.94;5034564;27;97378;-52
2023/08/23 00:11:14;;;;;;;2.87;2.23;;;;;;;20.24;57.37;101718.50;5032141;27;97215;-53
2023/08/23 00:13:39;;;;;;;2.60;2.40;;;;;;;20.24;57.57;101729.69;5032662;27;97062;-52
2023/08/23 00:16:04;;;;;;;2.90;2.57;;;;;;;20.23;57.83;101726.13;5033873;27;97128;-52
2023/08/23 00:18:30;;;;;;;2.50;2.30;;;;;;;20.21;57.54;101723.13;5035832;27;97154;-53
2023/08/23 00:20:55;;;;;;;2.17;2.07;;;;;;;20.21;57.67;101725.16;5037218;27;96831;-52
2023/08/23 00:23:20;;;;;;;2.50;2.30;;;;;;;20.19;57.83;101728.47;5035438;27;96835;-53
2023/08/23 00:25:46;;;;;;;2.53;2.33;;;;;;;20.17;57.65;101719.88;5032134;27;97535;-54
2023/08/23 00:28:11;;;;;;;3.33;2.50;;;;;;;20.17;57.89;101725.44;5033900;27;96947;-54
2023/08/23 00:30:36;;;;;;;2.20;2.00;;;;;;;20.16;57.70;101716.31;5032975;27;97104;-54
2023/08/23 00:33:02;;;;;;;2.27;2.07;;;;;;;20.16;57.76;101723.94;5030255;27;96653;-53
2023/08/23 00:35:27;;;;;;;2.27;2.17;;;;;;;20.15;58.05;101728.78;5033621;27;96990;-53
2023/08/23 00:37:52;;;;;;;5.90;2.50;;;;;;;20.16;57.94;101730.28;5033466;27;99252;-52
2023/08/23 00:40:18;;;;;;;2.43;2.00;;;;;;;20.16;58.03;101732.31;5032232;27;110473;-55
2023/08/23 00:42:43;;;;;;;2.77;2.27;;;;;;;20.15;57.91;101730.81;5033655;27;97225;-53
2023/08/23 00:45:09;;;;;;;3.63;2.53;;;;;;;20.15;58.10;101742.00;5031056;27;97096;-54
2023/08/23 00:47:34;;;;;;;1.80;1.70;;;;;;;20.13;58.03;101733.41;5030939;27;97409;-53
2023/08/23 00:50:00;;;;;;;2.33;2.13;;;;;;;20.10;57.99;101731.66;5031595;27;97723;-53
2023/08/23 00:52:27;;;;;;;4.70;2.30;;;;;;;20.08;58.03;101732.19;5030821;27;97517;-53
2023/08/23 00:54:53;;;;;;;3.47;2.67;;;;;;;20.06;58.19;101720.03;5031530;27;97390;-53
2023/08/23 00:57:21;;;;;;;5.20;2.40;;;;;;;20.05;57.96;101726.94;5031178;27;96765;-55
2023/08/23 00:59:47;;;;;;;2.13;1.93;;;;;;;20.01;58.17;101727.22;5030998;27;96641;-55
2023/08/23 01:02:12;;;;;;;3.70;2.63;;;;;;;20.00;57.91;101722.19;5028640;27;97290;-53
2023/08/23 01:04:38;;;;;;;3.97;2.37;;;;;;;19.93;57.99;101717.22;5031919;27;96682;-53
2023/08/23 01:07:12;;;;;;;2.40;2.20;;;;;;;19.92;58.49;101712.94;5032631;27;97345;-55
2023/08/23 01:10:16;;;;;;;2.43;2.23;;;;;;;19.88;58.81;101713.22;5032499;27;97614;-53
2023/08/23 01:13:00;;;;;;;2.30;2.10;;;;;;;19.89;58.70;101711.94;4991006;27;97314;-53
2023/08/23 01:15:28;;;;;;;3.03;2.83;;;;;;;19.89;58.37;101714.72;5033369;27;97029;-57
2023/08/23 01:17:54;;;;;;;2.27;2.17;;;;;;;19.87;58.24;101713.75;5031796;27;97288;-53
2023/08/23 01:20:20;;;;;;;2.10;2.00;;;;;;;19.84;58.16;101712.78;5034391;27;98316;-53
2023/08/23 01:22:54;;;;;;;2.60;2.40;;;;;;;19.80;58.53;101709.53;5030992;27;97209;-54
2023/08/23 01:25:20;;;;;;;3.23;2.77;;;;;;;19.79;58.26;101715.66;5031277;27;96737;-53
2023/08/23 01:27:45;;;;;;;4.87;2.93;;;;;;;19.79;58.52;101710.09;5027410;27;97157;-53
2023/08/23 01:30:14;;;;;;;2.73;2.50;;;;;;;19.77;58.34;101712.63;5034432;27;97082;-53
2023/08/23 01:32:48;;;;;;;5.20;3.23;;;;;;;19.77;58.67;101723.78;5031041;27;97160;-53
2023/08/23 01:35:46;;;;;;;2.50;2.30;;;;;;;19.75;58.95;101720.78;5030525;27;96976;-53
2023/08/23 01:38:16;;;;;;;2.87;2.53;;;;;;;19.73;58.54;101717.75;5021993;27;96713;-54
2023/08/23 01:40:42;;;;;;;3.20;3.00;;;;;;;19.71;58.56;101720.34;5030859;27;97466;-53
2023/08/23 01:43:08;;;;;;;2.90;2.70;;;;;;;19.68;58.67;101719.34;5034565;27;96875;-52
2023/08/23 01:45:33;;;;;;;4.53;2.80;;;;;;;19.66;58.64;101724.72;5030409;27;97214;-53
2023/08/23 01:47:58;;;;;;;3.20;2.40;;;;;;;19.64;58.68;101715.34;5033133;27;98996;-54
2023/08/23 01:50:24;;;;;;;3.30;2.77;;;;;;;19.62;58.60;101718.69;5032534;27;96991;-52
2023/08/23 01:52:49;;;;;;;6.30;2.90;;;;;;;19.62;58.71;101713.09;5029561;27;106573;-52
2023/08/23 01:55:17;;;;;;;2.73;2.53;;;;;;;19.62;58.78;101726.31;5030483;27;100954;-53
2023/08/23 01:57:44;;;;;;;2.80;2.60;;;;;;;19.58;58.79;101726.63;5031498;27;97639;-54
2023/08/23 02:00:10;;;;;;;2.97;2.77;;;;;;;19.56;58.47;101723.59;5029742;27;96811;-53
2023/08/23 02:02:36;;;;;;;3.00;2.70;;;;;;;19.52;58.69;101725.94;5030619;27;97319;-52
2023/08/23 02:05:01;;;;;;;2.83;2.63;;;;;;;19.51;58.57;101729.25;5032764;27;96787;-53
2023/08/23 02:07:27;;;;;;;2.83;2.67;;;;;;;19.47;58.74;101726.00;5028127;27;105807;-53
2023/08/23 02:09:52;;;;;;;2.83;2.63;;;;;;;19.46;58.84;101730.09;5029437;27;105384;-53
2023/08/23 02:12:17;;;;;;;6.10;2.73;;;;;;;19.44;59.06;101725.03;5030081;27;108142;-53
2023/08/23 02:14:43;;;;;;;2.87;2.67;;;;;;;19.42;58.96;101722.78;5028992;27;104009;-52
2023/08/23 02:17:08;;;;;;;3.17;2.93;;;;;;;19.42;58.79;101725.56;5028625;27;100675;-54
2023/08/23 02:19:33;;;;;;;3.77;2.50;;;;;;;19.40;58.93;101725.34;5031903;27;97579;-52
2023/08/23 02:21:59;;;;;;;2.90;2.70;;;;;;;19.40;58.92;101728.13;5029868;27;96838;-53
2023/08/23 02:24:24;;;;;;;2.70;2.50;;;;;;;19.39;58.93;101720.28;5032663;27;97410;-52
2023/08/23 02:26:49;;;;;;;3.00;2.80;;;;;;;19.35;58.79;101720.56;5032388;27;97270;-53
2023/08/23 02:29:15;;;;;;;2.20;2.10;;;;;;;19.34;58.84;101724.66;5031072;27;97177;-53
2023/08/23 02:31:40;;;;;;;3.10;2.90;;;;;;;19.30;58.91;101718.59;5030555;27;99801;-53
2023/08/23 02:34:05;;;;;;;2.97;2.77;;;;;;;19.29;58.87;101717.09;5029523;27;103958;-53
2023/08/23 02:36:31;;;;;;;2.77;2.57;;;;;;;19.27;58.85;101713.31;5030589;27;97445;-53
2023/08/23 02:38:56;;;;;;;3.10;2.80;;;;;;;19.24;58.92;101708.81;5029031;27;97625;-53
2023/08/23 02:41:22;;;;;;;3.10;2.77;;;;;;;19.21;58.90;101699.44;5031585;27;97030;-53
2023/08/23 02:43:47;;;;;;;2.50;2.30;;;;;;;19.19;59.26;101704.03;5032950;27;97195;-52
2023/08/23 02:46:12;;;;;;;3.23;2.93;;;;;;;19.20;59.17;101708.31;5031355;27;106211;-52
2023/08/23 02:48:37;;;;;;;2.90;2.47;;;;;;;19.19;58.98;101709.63;5029283;27;96737;-53
2023/08/23 02:51:03;;;;;;;2.90;2.70;;;;;;;19.18;59.19;101710.88;5028340;27;96957;-53
2023/08/23 02:53:28;;;;;;;3.07;2.87;;;;;;;19.16;59.29;101705.84;5031289;27;96897;-53
2023/08/23 02:55:53;;;;;;;2.60;2.40;;;;;;;19.14;59.18;101705.63;5033449;27;97409;-53
2023/08/23 02:58:19;;;;;;;3.00;2.80;;;;;;;19.11;59.06;101705.94;5031961;27;108154;-53
2023/08/23 03:00:44;;;;;;;3.43;3.13;;;;;;;19.07;59.24;101709.00;5034512;27;96952;-53
2023/08/23 03:03:09;;;;;;;2.47;2.37;;;;;;;19.04;59.10;101703.72;5037826;27;97086;-53
2023/08/23 03:05:35;;;;;;;3.07;2.87;;;;;;;19.03;59.21;101702.19;5030509;27;97512;-53
2023/08/23 03:08:00;;;;;;;3.50;2.80;;;;;;;19.01;59.45;101697.16;5030081;27;97562;-53
2023/08/23 03:10:25;;;;;;;3.17;2.23;;;;;;;19.01;59.37;101704.78;5033645;27;97236;-53
2023/08/23 03:12:51;;;;;;;3.60;3.30;;;;;;;18.97;59.26;101698.75;5033054;27;97345;-53
2023/08/23 03:15:16;;;;;;;3.00;2.80;;;;;;;18.91;59.19;101706.41;5033201;27;97563;-53
2023/08/23 03:17:41;;;;;;;2.70;2.10;;;;;;;18.85;59.45;101705.75;5034156;27;96789;-53
2023/08/23 03:20:07;;;;;;;2.70;2.60;;;;;;;18.81;59.47;101703.22;5034442;27;97095;-53
2023/08/23 03:22:32;;;;;;;2.87;2.43;;;;;;;18.81;59.39;101696.88;5033438;27;97378;-53
2023/08/23 03:24:58;;;;;;;3.77;2.53;;;;;;;18.83;59.47;101702.72;5031304;27;96769;-52
2023/08/23 03:27:24;;;;;;;2.87;2.67;;;;;;;18.83;59.64;101697.88;5033769;27;97611;-52
2023/08/23 03:29:50;;;;;;;2.97;2.77;;;;;;;18.85;59.44;101711.31;5035431;27;97145;-52
2023/08/23 03:32:15;;;;;;;2.80;2.60;;;;;;;18.83;59.34;101706.25;5032910;27;97459;-53
2023/08/23 03:34:41;;;;;;;3.57;3.27;;;;;;;18.83;59.28;101709.03;5030958;27;97512;-52
2023/08/23 03:37:06;;;;;;;4.63;2.90;;;;;;;18.83;59.38;101705.50;5028622;27;98311;-53
2023/08/23 03:39:31;;;;;;;3.00;2.70;;;;;;;18.82;59.43;101707.53;5029985;27;97312;-53
2023/08/23 03:41:57;;;;;;;4.70;3.47;;;;;;;18.80;59.37;101707.31;5032821;27;97018;-53
2023/08/23 03:44:22;;;;;;;6.20;3.13;;;;;;;18.79;59.26;101708.56;5029474;27;97313;-53
2023/08/23 03:46:48;;;;;;;4.03;3.57;;;;;;;18.78;59.37;101707.09;5033214;27;96702;-53
2023/08/23 03:49:13;;;;;;;3.97;3.60;;;;;;;18.77;59.60;101705.56;5029531;27;97534;-53
2023/08/23 03:51:38;;;;;;;3.30;3.10;;;;;;;18.74;59.30;101706.59;5030470;27;97178;-52
2023/08/23 03:54:04;;;;;;;3.30;3.10;;;;;;;18.70;59.44;101712.47;5035566;27;106712;-52
2023/08/23 03:56:29;;;;;;;3.90;3.60;;;;;;;18.67;59.63;101707.19;5031358;27;97643;-53
2023/08/23 03:58:56;;;;;;;3.47;3.20;;;;;;;18.65;59.37;101704.91;5033499;27;98378;-53
2023/08/23 04:01:21;;;;;;;3.97;3.50;;;;;;;18.64;59.65;101695.06;5032466;27;96854;-53
2023/08/23 04:03:46;;;;;;;3.47;3.27;;;;;;;18.65;59.53;101704.19;5032105;27;101589;-53
2023/08/23 04:06:12;;;;;;;3.63;3.33;;;;;;;18.64;59.61;101702.66;5031337;27;97082;-54
2023/08/23 04:08:37;;;;;;;5.13;3.90;;;;;;;18.62;59.54;101696.84;5036891;27;97177;-52
2023/08/23 04:11:02;;;;;;;3.47;3.17;;;;;;;18.60;59.53;101702.19;5035094;27;101450;-53
2023/08/23 04:13:28;;;;;;;3.40;3.07;;;;;;;18.59;59.50;101706.25;5033375;27;97261;-53
2023/08/23 04:15:53;;;;;;;3.70;3.40;;;;;;;18.58;59.64;101707.53;5023565;27;105784;-53
2023/08/23 04:18:18;;;;;;;3.97;3.67;;;;;;;18.56;59.53;101737.97;5031308;27;101365;-52
2023/08/23 04:20:44;;;;;;;4.10;3.70;;;;;;;18.52;59.52;101707.59;5032488;27;101508;-52
2023/08/23 04:23:09;;;;;;;3.47;3.17;;;;;;;18.51;59.62;101708.88;5030378;27;97639;-53
2023/08/23 04:25:34;;;;;;;5.10;3.10;;;;;;;18.48;59.58;101704.34;5033450;27;97377;-53
2023/08/23 04:28:00;;;;;;;3.70;3.43;;;;;;;18.47;59.50;101713.22;5033289;27;97031;-53
2023/08/23 04:30:25;;;;;;;4.00;3.40;;;;;;;18.44;59.23;101711.44;5033526;27;97189;-53
2023/08/23 04:32:50;;;;;;;4.13;3.73;;;;;;;18.40;59.37;101711.75;5030073;27;96855;-51
2023/08/23 04:35:15;;;;;;;3.83;3.53;;;;;;;18.37;59.62;101712.78;5030318;27;99815;-53
2023/08/23 04:37:41;;;;;;;3.07;2.77;;;;;;;18.36;59.47;101708.50;5031440;27;102974;-54
2023/08/23 04:40:07;;;;;;;4.60;2.83;;;;;;;18.36;59.60;101710.53;5032822;27;97200;-53
2023/08/23 04:42:33;;;;;;;3.10;2.90;;;;;;;18.34;59.51;101713.06;5032031;27;97367;-52
2023/08/23 04:45:01;;;;;;;2.53;2.43;;;;;;;18.34;59.62;101708.25;5034732;27;98220;-53
2023/08/23 04:47:27;;;;;;;2.60;2.50;;;;;;;18.35;59.75;101715.34;5033201;27;97186;-51
2023/08/23 04:49:53;;;;;;;2.93;2.73;;;;;;;18.37;59.75;101709.25;5031959;27;97323;-52
2023/08/23 04:52:19;;;;;;;2.80;2.60;;;;;;;18.39;59.57;101713.00;5035632;27;97705;-53
2023/08/23 04:54:44;;;;;;;3.47;2.97;;;;;;;18.36;59.63;101714.06;5030432;27;108512;-53
2023/08/23 04:57:09;;;;;;;3.30;2.90;;;;;;;18.37;59.53;101723.19;5032701;27;96961;-53
2023/08/23 04:59:35;;;;;;;2.73;2.53;;;;;;;18.34;59.54;101719.41;5032525;27;101343;-53
2023/08/23 05:02:01;;;;;;;3.23;2.87;;;;;;;18.34;60.00;101715.88;5031800;27;98463;-53
2023/08/23 05:04:26;;;;;;;2.80;2.57;;;;;;;18.36;59.83;101716.09;5032476;27;97708;-53
2023/08/23 05:06:51;;;;;;;2.57;2.47;;;;;;;18.36;59.80;101704.94;5027866;27;97038;-53
2023/08/23 05:09:17;;;;;;;2.40;2.30;;;;;;;18.36;59.81;101721.66;5032891;27;96890;-54
2023/08/23 05:11:42;;;;;;;2.97;2.77;;;;;;;18.35;59.84;101714.56;5035206;27;97432;-53
2023/08/23 05:14:07;;;;;;;3.67;3.17;;;;;;;18.37;59.88;101723.19;5036938;27;99795;-53
2023/08/23 05:16:33;;;;;;;3.17;2.93;;;;;;;18.37;59.93;101714.84;5032245;27;97067;-53
2023/08/23 05:18:58;;;;;;;4.80;3.03;;;;;;;18.38;59.90;101719.88;5034572;27;97057;-53
2023/08/23 05:21:24;;;;;;;3.70;3.37;;;;;;;18.38;59.91;101713.53;5030245;27;97429;-53
2023/08/23 05:23:50;;;;;;;3.30;2.70;;;;;;;18.39;59.83;101715.78;5029735;27;97258;-53
2023/08/23 05:26:16;;;;;;;2.90;2.70;;;;;;;18.39;59.86;101720.63;5030450;27;97113;-53
2023/08/23 05:28:41;;;;;;;2.87;2.57;;;;;;;18.39;59.81;101720.63;5032823;27;97403;-53
2023/08/23 05:31:06;;;;;;;2.47;2.37;;;;;;;18.39;60.01;101718.59;5030887;27;97521;-53
2023/08/23 05:33:32;;;;;;;2.87;2.50;;;;;;;18.41;60.13;101718.81;5032004;27;97142;-53
2023/08/23 05:35:58;;;;;;;2.50;2.30;;;;;;;18.44;59.96;101728.16;5031009;27;97175;-53
2023/08/23 05:38:23;;;;;;;2.63;2.43;;;;;;;18.47;60.25;101729.94;5028919;27;101021;-53
2023/08/23 05:40:50;;;;;;;2.50;2.27;;;;;;;18.49;60.26;101730.19;5028927;27;98027;-53
2023/08/23 05:43:16;;;;;;;2.27;2.17;;;;;;;18.53;60.29;101725.06;5034256;27;97103;-53
2023/08/23 05:45:42;;;;;;;2.00;1.90;;;;;;;18.58;60.42;101727.06;5030483;27;96730;-52
2023/08/23 05:48:08;;;;;;;3.10;2.80;;;;;;;18.63;60.25;101735.34;5031099;27;97129;-52
2023/08/23 05:50:33;;;;;;;2.77;2.57;;;;;;;18.68;60.45;101734.53;5030218;27;101188;-53
2023/08/23 05:52:58;;;;;;;4.43;2.60;;;;;;;18.74;60.50;101740.06;5034709;27;97200;-52
2023/08/23 05:55:24;;;;;;;2.70;2.50;;;;;;;18.78;60.63;101729.38;5028932;27;109186;-52
2023/08/23 05:57:49;;;;;;;2.70;2.50;;;;;;;18.83;60.56;101742.50;5031793;27;100912;-52
2023/08/23 06:00:14;;;;;;;2.63;2.40;;;;;;;18.87;60.61;101740.16;5035685;27;97520;-52
2023/08/23 06:02:40;;;;;;;3.00;2.80;;;;;;;18.90;60.68;101741.16;5030192;27;97078;-52
2023/08/23 06:05:06;;;;;;;3.33;3.07;;;;;;;18.97;60.66;101740.56;5032073;27;97127;-53
2023/08/23 06:07:31;;;;;;;3.90;3.60;;;;;;;19.04;60.61;101757.50;5033180;27;97393;-53
2023/08/23 06:09:57;;;;;;;3.80;3.47;;;;;;;19.11;60.71;101753.34;5031871;27;97196;-53
2023/08/23 06:12:25;;;;;;;3.50;3.20;;;;;;;19.16;60.78;101756.06;5034477;27;97043;-53
2023/08/23 06:14:50;;;;;;;7.27;3.80;;;;;;;19.20;60.86;101759.31;5029580;27;96675;-53
2023/08/23 06:17:16;;;;;;;4.20;3.57;;;;;;;19.27;60.89;101746.78;5032528;27;97142;-53
2023/08/23 06:19:42;;;;;;;3.87;3.50;;;;;;;19.33;60.93;101756.59;5029471;27;97336;-52
2023/08/23 06:22:08;;;;;;;4.10;3.67;;;;;;;19.39;60.98;101748.22;5030816;27;97956;-53
2023/08/23 06:24:33;;;;;;;5.13;3.97;;;;;;;19.46;61.12;101753.19;5029257;27;97111;-53
2023/08/23 06:26:58;;;;;;;3.60;3.30;;;;;;;19.53;61.09;101757.41;5029296;27;97718;-53
2023/08/23 06:29:24;;;;;;;4.23;3.77;;;;;;;19.59;61.04;101760.88;5029460;27;104022;-53
2023/08/23 06:31:49;;;;;;;4.07;3.67;;;;;;;19.64;60.91;101762.81;5028728;27;104760;-52
2023/08/23 06:34:14;;;;;;;4.77;4.20;;;;;;;19.71;61.23;101770.59;5030707;27;104538;-53
2023/08/23 06:36:39;;;;;;;5.80;5.00;;;;;;;19.76;61.24;101775.38;5029192;27;97109;-52
2023/08/23 06:39:05;;;;;;;5.00;4.07;;;;;;;19.84;61.58;101765.84;5030596;27;112676;-53
2023/08/23 06:41:30;;;;;;;7.00;4.37;;;;;;;19.93;61.42;101770.28;5033063;27;96925;-53
2023/08/23 06:44:00;;;;;;;4.40;4.00;;;;;;;20.05;61.73;101768.84;5029076;27;97360;-54
2023/08/23 06:46:26;;;;;;;20.58;11.80;;;;;;;20.41;63.48;101769.28;5031174;27;97186;-54
2023/08/23 06:48:52;;;;;;;5.07;4.47;;;;;;;20.43;62.98;101764.66;5032035;27;97140;-55
2023/08/23 06:51:17;;;;;;;8.73;4.30;;;;;;;20.53;62.86;101765.03;5026926;27;97185;-54
2023/08/23 06:53:42;;;;;;;6.03;4.00;;;;;;;20.62;62.54;101768.13;5029784;27;97356;-54
2023/08/23 06:56:08;;;;;;;4.23;3.83;;;;;;;20.72;62.51;101760.84;5028383;27;97035;-55
2023/08/23 06:58:34;;;;;;;5.57;4.93;;;;;;;20.81;62.30;101768.06;5030158;27;97710;-54
2023/08/23 07:00:59;;;;;;;5.27;4.50;;;;;;;20.90;62.28;101768.38;5027770;27;97581;-54
2023/08/23 07:03:24;;;;;;;5.20;4.63;;;;;;;21.02;62.36;101805.31;5030412;27;106395;-55
2023/08/23 07:05:50;;;;;;;9.40;4.20;;;;;;;21.13;62.40;101774.34;5028305;27;97043;-55
2023/08/23 07:08:15;;;;;;;5.20;4.70;;;;;;;21.26;62.38;101774.31;5028810;27;97354;-55
2023/08/23 07:10:40;;;;;;;5.57;4.13;;;;;;;21.42;62.29;101769.66;5028675;27;97362;-54
2023/08/23 07:13:06;;;;;;;10.13;5.27;;;;;;;21.57;62.25;101764.25;5029899;27;97341;-54
2023/08/23 07:15:31;;;;;;;6.33;5.40;;;;;;;21.69;62.05;101765.50;5031247;27;102081;-56
2023/08/23 07:17:56;;;;;;;9.70;5.30;;;;;;;21.81;62.08;101766.75;5032386;27;106881;-54
2023/08/23 07:20:22;;;;;;;6.97;4.53;;;;;;;21.94;62.06;101755.53;5027696;27;106398;-54
2023/08/23 07:22:48;;;;;;;5.23;4.40;;;;;;;22.07;61.98;101757.50;5030659;27;96846;-53
2023/08/23 07:25:13;;;;;;;8.03;4.77;;;;;;;22.22;61.83;101764.00;5029213;27;96868;-55
2023/08/23 07:27:40;;;;;;;6.17;4.87;;;;;;;22.36;61.74;101762.66;5028109;27;97658;-54
2023/08/23 07:30:06;;;;;;;5.07;4.13;;;;;;;22.43;61.53;101761.22;5030467;27;97434;-54
2023/08/23 07:32:32;;;;;;;6.67;3.80;;;;;;;22.49;61.59;101772.28;5029332;27;97490;-54
2023/08/23 07:35:00;;;;;;;5.33;4.20;;;;;;;22.54;61.41;101768.59;5032024;27;97351;-55
2023/08/23 07:37:25;;;;;;;7.33;3.87;;;;;;;22.64;61.34;101766.81;5030520;27;97396;-54
2023/08/23 07:39:50;;;;;;;6.00;3.80;;;;;;;22.69;61.15;101769.47;5029637;27;97172;-54
2023/08/23 07:42:16;;;;;;;4.73;3.20;;;;;;;22.77;61.17;101766.72;5030866;27;106911;-54
2023/08/23 07:44:41;;;;;;;3.40;3.00;;;;;;;22.89;61.12;101765.13;5032953;27;98097;-54
2023/08/23 07:47:06;;;;;;;6.23;2.93;;;;;;;22.98;60.80;101770.19;5032018;27;100744;-54
2023/08/23 07:49:32;;;;;;;8.73;3.93;;;;;;;23.09;60.96;101772.69;5037561;27;99684;-55
2023/08/23 07:51:57;;;;;;;4.43;3.57;;;;;;;23.21;60.47;101773.91;5032768;27;97094;-54
2023/08/23 07:54:22;;;;;;;3.33;3.07;;;;;;;23.28;60.35;101775.25;5031058;27;102645;-54
2023/08/23 07:56:48;;;;;;;3.70;3.40;;;;;;;23.28;60.05;101780.84;5033116;27;97441;-56
2023/08/23 07:59:13;;;;;;;10.73;4.23;;;;;;;23.28;60.29;101775.25;5032169;27;96976;-55
2023/08/23 08:01:39;;;;;;;9.60;3.70;;;;;;;23.36;60.32;101776.81;5033834;27;97053;-55
2023/08/23 08:04:04;;;;;;;5.10;3.63;;;;;;;23.44;59.96;101794.44;5034492;27;97133;-54
2023/08/23 08:06:29;;;;;;;5.37;3.87;;;;;;;23.46;60.13;101791.81;5030483;27;98499;-56
2023/08/23 08:08:54;;;;;;;3.90;3.43;;;;;;;23.43;60.23;101792.94;5033528;27;97692;-55
2023/08/23 08:11:21;;;;;;;4.30;3.30;;;;;;;23.46;60.29;101793.91;5033099;27;97086;-54
2023/08/23 08:13:46;;;;;;;6.87;4.07;;;;;;;23.46;60.25;101797.44;5031727;27;96647;-54
2023/08/23 08:16:14;;;;;;;5.60;4.30;;;;;;;23.46;60.31;101779.84;5031936;27;97157;-56
2023/08/23 08:18:40;;;;;;;5.30;4.40;;;;;;;23.50;60.08;101789.38;5031709;27;97186;-54
2023/08/23 08:21:06;;;;;;;5.13;4.60;;;;;;;23.51;60.00;101793.72;5029309;27;97200;-54
2023/08/23 08:23:32;;;;;;;3.93;3.53;;;;;;;23.58;60.26;101792.25;5036314;27;97398;-54
2023/08/23 08:25:58;;;;;;;4.47;3.53;;;;;;;23.69;60.12;101798.28;5032191;27;97431;-55
2023/08/23 08:28:24;;;;;;;6.37;5.00;;;;;;;23.78;59.77;101794.94;5032741;27;97182;-54
2023/08/23 08:30:49;;;;;;;6.13;4.77;;;;;;;23.83;59.54;101802.44;5033646;27;97234;-54
2023/08/23 08:33:16;;;;;;;4.67;4.23;;;;;;;23.89;59.74;101795.91;5032694;27;101671;-54
2023/08/23 08:35:41;;;;;;;7.50;5.60;;;;;;;24.00;59.27;101806.81;5031875;27;97579;-55
2023/08/23 08:38:06;;;;;;;5.10;4.60;;;;;;;24.08;59.24;101799.16;5035648;27;100392;-54
2023/08/23 08:40:32;;;;;;;12.13;5.97;;;;;;;24.11;58.79;101803.66;5031886;27;100240;-55
2023/08/23 08:42:59;;;;;;;5.87;4.43;;;;;;;24.19;58.81;101810.78;5034144;27;96662;-54
2023/08/23 08:45:24;;;;;;;8.73;4.60;;;;;;;24.32;59.06;101812.69;5030791;27;97286;-57
2023/08/23 08:47:50;;;;;;;4.37;3.97;;;;;;;24.48;58.89;101806.50;5033445;27;97641;-55
2023/08/23 08:50:16;;;;;;;5.70;3.70;;;;;;;24.69;58.47;101806.31;5031870;27;97204;-54
2023/08/23 08:52:48;;;;;;;5.27;4.20;;;;;;;24.94;57.82;101803.69;5031826;27;96886;-55
2023/08/23 08:55:14;;;;;;;4.47;3.77;;;;;;;25.05;57.94;101801.19;5032151;27;97514;-55
2023/08/23 08:57:40;;;;;;;4.27;3.83;;;;;;;25.20;57.73;101803.25;5029559;27;97268;-55
2023/08/23 09:00:07;;;;;;;8.43;3.20;;;;;;;25.38;57.41;101804.13;5030711;27;96930;-55
2023/08/23 09:02:34;;;;;;;4.30;2.63;;;;;;;25.52;56.72;101813.84;5031611;27;97252;-54
2023/08/23 09:05:01;;;;;;;2.60;2.40;;;;;;;25.58;56.65;101806.69;5030544;27;97219;-54
2023/08/23 09:07:26;;;;;;;3.43;2.60;;;;;;;25.58;56.48;101805.94;5028247;27;97313;-56
2023/08/23 09:09:52;;;;;;;3.50;3.20;;;;;;;25.70;56.40;101799.31;5031447;27;96767;-54
2023/08/23 09:12:18;;;;;;;3.63;3.00;;;;;;;25.84;55.88;101799.81;5036628;27;96811;-55
2023/08/23 09:14:49;;;;;;;4.27;2.83;;;;;;;26.02;55.98;101799.31;5032113;27;96687;-54
2023/08/23 09:17:14;;;;;;;3.87;2.80;;;;;;;26.18;55.68;101794.34;5027458;27;97123;-54
2023/08/23 09:19:40;;;;;;;4.43;2.70;;;;;;;26.36;55.42;101800.78;5030297;27;97249;-55
2023/08/23 09:22:05;;;;;;;3.33;3.03;;;;;;;26.50;54.78;101796.34;5031071;27;106342;-55
2023/08/23 09:24:31;;;;;;;2.97;2.70;;;;;;;26.66;54.44;101803.34;5031232;27;97121;-54
2023/08/23 09:26:56;;;;;;;4.70;2.30;;;;;;;26.71;54.08;101800.28;5030536;27;96736;-54
2023/08/23 09:29:23;;;;;;;3.20;2.90;;;;;;;26.74;53.86;101804.81;5033083;27;97093;-57
2023/08/23 09:31:49;;;;;;;2.33;2.13;;;;;;;26.83;53.81;101803.41;5031839;27;97267;-56
2023/08/23 09:34:15;;;;;;;3.03;2.17;;;;;;;27.00;53.63;101797.75;5030623;27;96778;-55
2023/08/23 09:36:41;;;;;;;3.63;2.20;;;;;;;27.16;53.22;101795.53;5033020;27;97285;-54
2023/08/23 09:39:09;;;;;;;4.13;2.30;;;;;;;27.31;52.89;101798.19;5028860;27;97013;-56
2023/08/23 09:41:42;;;;;;;3.80;2.57;;;;;;;27.42;51.88;101789.97;5030252;27;96841;-54
2023/08/23 09:44:08;;;;;;;4.13;2.10;;;;;;;27.50;52.59;101787.03;5031075;27;97466;-55
2023/08/23 09:46:40;;;;;;;2.50;2.20;;;;;;;27.59;52.09;101783.53;5030644;27;96834;-56
2023/08/23 09:49:07;;;;;;;3.33;2.00;;;;;;;27.80;52.14;101794.38;5031022;27;97163;-54
2023/08/23 09:51:36;;;;;;;2.80;2.33;;;;;;;27.92;51.57;101790.41;5030509;27;97213;-56
2023/08/23 09:54:12;;;;;;;3.23;2.10;;;;;;;27.90;50.98;101786.69;5029960;27;96771;-56
2023/08/23 09:56:40;;;;;;;2.00;1.80;;;;;;;27.73;51.29;101787.50;5030687;27;97089;-55
2023/08/23 09:59:06;;;;;;;3.40;1.73;;;;;;;27.62;51.59;101796.50;5031478;27;97215;-55
2023/08/23 10:01:31;;;;;;;3.03;1.57;;;;;;;27.52;51.54;101787.22;5030794;27;96831;-55
2023/08/23 10:03:57;;;;;;;3.40;1.97;;;;;;;27.31;51.64;101781.97;5029659;27;97243;-54
2023/08/23 10:06:23;;;;;;;2.13;1.90;;;;;;;27.09;51.83;101779.41;5030302;27;97865;-55
2023/08/23 10:08:48;;;;;;;2.10;1.90;;;;;;;26.89;52.27;101780.59;5031536;27;97096;-55
2023/08/23 10:11:14;;;;;;;6.83;1.80;;;;;;;26.73;52.54;101783.53;5031654;27;97142;-54
2023/08/23 10:13:41;;;;;;;4.20;2.30;;;;;;;26.72;52.48;101779.19;5031233;27;97523;-55
2023/08/23 10:16:08;;;;;;;2.10;1.87;;;;;;;26.78;52.35;101773.31;5034837;27;97220;-55
2023/08/23 10:18:34;;;;;;;1.83;1.73;;;;;;;26.95;52.30;101778.25;5030916;27;96718;-56
2023/08/23 10:21:02;;;;;;;4.00;1.80;;;;;;;27.06;51.33;101766.44;5030213;27;96848;-54
2023/08/23 10:23:29;;;;;;;2.10;1.70;;;;;;;27.06;51.10;101769.28;5029921;27;97239;-55
2023/08/23 10:25:54;;;;;;;1.80;1.43;;;;;;;27.17;50.89;101765.94;5029774;27;97118;-55
2023/08/23 10:28:20;;;;;;;1.83;1.70;;;;;;;27.26;50.41;101762.44;5028884;27;97147;-55
2023/08/23 10:30:48;;;;;;;2.20;1.73;;;;;;;27.35;50.17;101756.88;5028000;27;97010;-55
2023/08/23 10:33:14;;;;;;;1.20;1.10;;;;;;;27.42;50.05;101744.72;5031623;27;97448;-54
2023/08/23 10:35:42;;;;;;;1.43;1.33;;;;;;;27.44;49.68;101749.78;5028315;27;97839;-55
2023/08/23 10:38:08;;;;;;;1.73;1.37;;;;;;;27.44;49.63;101746.97;5028642;27;97416;-55
2023/08/23 10:40:36;;;;;;;3.40;1.80;;;;;;;27.49;49.40;101745.97;5030389;27;96692;-56
2023/08/23 10:43:18;;;;;;;4.73;1.90;;;;;;;27.60;48.46;101751.09;5031560;27;97485;-55
2023/08/23 10:45:50;;;;;;;3.20;1.87;;;;;;;27.67;48.68;101738.19;5029296;27;96899;-55
2023/08/23 10:48:17;;;;;;;2.00;1.90;;;;;;;27.75;49.10;101738.81;5032447;27;97108;-55
2023/08/23 10:50:43;;;;;;;2.07;1.97;;;;;;;27.84;49.04;101736.03;5031405;27;96896;-53
2023/08/23 10:53:10;;;;;;;2.03;1.60;;;;;;;27.92;48.94;101735.91;5031665;27;97056;-55
2023/08/23 10:55:37;;;;;;;2.20;1.73;;;;;;;28.06;48.68;101751.94;5030472;27;97217;-55
2023/08/23 10:58:02;;;;;;;2.93;1.73;;;;;;;28.18;48.41;101741.53;5030162;27;97829;-55
2023/08/23 11:00:28;;;;;;;3.67;1.57;;;;;;;28.29;48.04;101747.97;5030351;27;96999;-55
2023/08/23 11:02:56;;;;;;;2.67;1.53;;;;;;;28.39;48.24;101748.75;5030577;27;97017;-56
2023/08/23 11:05:21;;;;;;;1.67;1.57;;;;;;;28.50;47.97;101745.34;5031772;27;97434;-55
2023/08/23 11:07:47;;;;;;;2.20;1.47;;;;;;;28.65;47.74;101756.44;5031793;27;97399;-55
2023/08/23 11:10:12;;;;;;;2.40;1.80;;;;;;;28.77;47.30;101738.25;5031260;27;104316;-54
2023/08/23 11:12:38;;;;;;;2.10;1.50;;;;;;;28.85;47.18;101741.69;5028185;27;97447;-56
2023/08/23 11:15:04;;;;;;;4.53;2.10;;;;;;;28.87;46.71;101735.44;5032628;27;97220;-55
2023/08/23 11:17:29;;;;;;;3.67;2.37;;;;;;;28.93;47.42;101742.31;5034149;27;96912;-55
2023/08/23 11:19:55;;;;;;;2.00;1.50;;;;;;;29.09;47.21;101742.75;5034041;27;97396;-55